createdAt,value
2017-09-05T00:01:01.986Z,19.03
2017-09-05T00:03:33.439Z,9.70
2017-09-05T00:06:04.502Z,10.93
2017-09-05T00:08:37.097Z,15.10
2017-09-05T00:11:27.409Z,12.40
2017-09-05T00:14:02.859Z,9.50
2017-09-05T00:16:40.496Z,21.47
2017-09-05T00:19:15.965Z,11.17
2017-09-05T00:21:47.486Z,22.43
2017-09-05T00:24:18.671Z,10.40
2017-09-05T00:26:49.506Z,14.10
2017-09-05T00:29:20.346Z,11.80
2017-09-05T00:31:50.942Z,13.50
2017-09-05T00:34:21.431Z,8.57
2017-09-05T00:36:53.091Z,12.83
2017-09-05T00:39:23.648Z,8.00
2017-09-05T00:41:54.342Z,7.53
2017-09-05T00:44:25.867Z,15.57
2017-09-05T00:46:56.435Z,9.00
2017-09-05T00:49:27.402Z,9.70
2017-09-05T00:51:57.963Z,7.30
2017-09-05T00:54:28.965Z,8.73
2017-09-05T00:56:59.590Z,2.70
2017-09-05T00:59:30.149Z,4.70
2017-09-05T01:02:00.709Z,12.07
2017-09-05T01:04:31.306Z,6.03
2017-09-05T01:07:02.206Z,11.23
2017-09-05T01:09:32.770Z,7.70
2017-09-05T01:12:03.378Z,10.23
2017-09-05T01:14:35.238Z,4.20
2017-09-05T01:17:05.812Z,6.83
2017-09-05T01:19:36.695Z,3.57
2017-09-05T01:22:07.259Z,3.73
2017-09-05T01:24:38.150Z,6.10
2017-09-05T01:27:10.036Z,5.33
2017-09-05T01:29:40.566Z,4.17
2017-09-05T01:32:11.138Z,12.70
2017-09-05T01:34:41.690Z,13.57
2017-09-05T01:37:12.673Z,15.83
2017-09-05T01:39:43.379Z,2.90
2017-09-05T01:42:14.814Z,6.97
2017-09-05T01:44:45.376Z,10.53
2017-09-05T01:47:16.759Z,7.23
2017-09-05T01:49:47.322Z,4.70
2017-09-05T01:52:18.814Z,3.77
2017-09-05T01:54:51.459Z,4.10
2017-09-05T01:57:23.894Z,2.67
2017-09-05T01:59:54.779Z,3.73
2017-09-05T02:02:25.651Z,4.80
2017-09-05T02:04:56.187Z,3.77
2017-09-05T02:07:28.093Z,3.83
2017-09-05T02:09:58.657Z,3.83
2017-09-05T02:12:29.597Z,14.03
2017-09-05T02:15:00.126Z,4.60
2017-09-05T02:17:31.506Z,5.40
2017-09-05T02:20:02.014Z,5.83
2017-09-05T02:22:33.523Z,8.17
2017-09-05T02:25:05.500Z,6.17
2017-09-05T02:27:36.170Z,7.27
2017-09-05T02:30:08.077Z,7.73
2017-09-05T02:32:38.705Z,12.10
2017-09-05T02:35:09.318Z,7.27
2017-09-05T02:37:40.071Z,10.40
2017-09-05T02:40:10.659Z,6.67
2017-09-05T02:42:41.590Z,6.67
2017-09-05T02:45:13.294Z,6.67
2017-09-05T02:47:44.245Z,6.97
2017-09-05T02:50:15.121Z,7.67
2017-09-05T02:52:46.030Z,8.63
2017-09-05T02:55:16.979Z,6.37
2017-09-05T02:57:47.902Z,6.83
2017-09-05T03:00:34.142Z,6.80
2017-09-05T03:03:04.658Z,6.37
2017-09-05T03:05:35.186Z,11.30
2017-09-05T03:08:06.210Z,5.40
2017-09-05T03:10:36.746Z,5.00
2017-09-05T03:13:07.341Z,5.83
2017-09-05T03:15:37.887Z,5.20
2017-09-05T03:18:08.496Z,5.50
2017-09-05T03:20:39.090Z,7.90
2017-09-05T03:23:09.703Z,10.73
2017-09-05T03:25:40.767Z,9.20
2017-09-05T03:28:11.330Z,16.03
2017-09-05T03:30:41.911Z,17.40
2017-09-05T03:33:12.514Z,17.83
2017-09-05T03:35:43.074Z,11.43
2017-09-05T03:38:14.855Z,12.30
2017-09-05T03:40:45.413Z,12.40
2017-09-05T03:43:16.475Z,11.33
2017-09-05T03:45:46.996Z,14.60
2017-09-05T03:48:18.345Z,12.90
2017-09-05T03:50:48.889Z,20.27
2017-09-05T03:53:19.403Z,17.23
2017-09-05T03:55:50.183Z,12.83
2017-09-05T03:58:21.619Z,11.17
2017-09-05T04:00:52.217Z,14.20
2017-09-05T04:03:23.074Z,12.60
2017-09-05T04:05:53.626Z,16.73
2017-09-05T04:08:25.495Z,15.37
2017-09-05T04:10:56.057Z,12.03
2017-09-05T04:13:27.073Z,15.67
2017-09-05T04:15:57.713Z,17.43
2017-09-05T04:18:28.262Z,17.60
2017-09-05T04:20:58.862Z,16.57
2017-09-05T04:23:29.456Z,15.30
2017-09-05T04:26:00.372Z,10.43
2017-09-05T04:28:30.970Z,13.00
2017-09-05T04:31:01.970Z,15.40
2017-09-05T04:33:33.361Z,12.57
2017-09-05T04:36:03.917Z,12.70
2017-09-05T04:38:34.511Z,10.80
2017-09-05T04:41:05.106Z,11.20
2017-09-05T04:43:35.923Z,10.87
2017-09-05T04:46:06.466Z,12.73
2017-09-05T04:48:37.043Z,14.17
2017-09-05T04:51:08.261Z,13.60
2017-09-05T04:53:38.770Z,16.40
2017-09-05T04:56:10.503Z,12.17
2017-09-05T04:58:41.073Z,15.20
2017-09-05T05:01:12.005Z,15.00
2017-09-05T05:03:42.594Z,10.43
2017-09-05T05:06:28.767Z,12.53
2017-09-05T05:08:59.727Z,8.90
2017-09-05T05:11:30.303Z,9.07
2017-09-05T05:14:01.227Z,12.50
2017-09-05T05:16:37.051Z,7.30
2017-09-05T05:19:08.691Z,6.67
2017-09-05T05:21:39.190Z,8.67
2017-09-05T05:24:09.722Z,8.77
2017-09-05T05:26:40.454Z,8.77
2017-09-05T05:29:10.977Z,8.70
2017-09-05T05:31:41.484Z,8.70
2017-09-05T05:34:12.063Z,11.10
2017-09-05T05:36:42.587Z,8.07
2017-09-05T05:39:13.486Z,17.00
2017-09-05T05:41:44.034Z,10.03
2017-09-05T05:44:15.025Z,17.97
2017-09-05T05:46:45.522Z,7.93
2017-09-05T05:49:16.117Z,9.20
2017-09-05T05:51:46.666Z,8.17
2017-09-05T05:54:17.166Z,11.00
2017-09-05T05:56:48.106Z,7.90
2017-09-05T05:59:18.667Z,10.10
2017-09-05T06:01:49.170Z,9.00
2017-09-05T06:04:19.727Z,9.70
2017-09-05T06:06:50.278Z,12.43
2017-09-05T06:09:20.851Z,9.10
2017-09-05T06:11:51.394Z,15.10
2017-09-05T06:14:22.190Z,16.83
2017-09-05T06:16:52.705Z,10.77
2017-09-05T06:19:23.307Z,7.83
2017-09-05T06:21:53.842Z,7.50
2017-09-05T06:24:24.398Z,10.70
2017-09-05T06:26:55.348Z,7.47
2017-09-05T06:29:25.916Z,8.20
2017-09-05T06:31:56.938Z,9.33
2017-09-05T06:34:27.474Z,8.07
2017-09-05T06:36:58.080Z,7.30
2017-09-05T06:39:28.650Z,10.47
2017-09-05T06:41:59.236Z,8.40
2017-09-05T06:44:30.198Z,8.27
2017-09-05T06:47:00.757Z,8.80
2017-09-05T06:49:31.286Z,13.43
2017-09-05T06:52:01.790Z,10.13
2017-09-05T06:54:33.934Z,11.93
2017-09-05T06:57:04.651Z,10.00
2017-09-05T06:59:35.178Z,7.77
2017-09-05T07:02:06.023Z,7.70
2017-09-05T07:04:36.538Z,7.30
2017-09-05T07:07:07.126Z,5.80
2017-09-05T07:09:37.716Z,5.90
2017-09-05T07:12:08.260Z,6.30
2017-09-05T07:14:39.218Z,7.13
2017-09-05T07:17:09.797Z,6.43
2017-09-05T07:19:40.789Z,9.27
2017-09-05T07:22:11.341Z,7.97
2017-09-05T07:24:41.863Z,5.00
2017-09-05T07:27:12.413Z,5.23
2017-09-05T07:29:42.934Z,6.77
2017-09-05T07:32:13.946Z,13.20
2017-09-05T07:34:44.507Z,4.70
2017-09-05T07:37:15.090Z,5.83
2017-09-05T07:39:45.623Z,5.70
2017-09-05T07:42:16.180Z,5.10
2017-09-05T07:44:47.190Z,7.50
2017-09-05T07:47:17.849Z,6.80
2017-09-05T07:49:48.859Z,4.20
2017-09-05T07:52:19.473Z,6.00
2017-09-05T07:54:50.011Z,4.60
2017-09-05T07:57:20.587Z,4.73
2017-09-05T07:59:51.184Z,4.33
2017-09-05T08:02:22.122Z,3.83
2017-09-05T08:04:52.663Z,4.77
2017-09-05T08:07:23.249Z,3.93
2017-09-05T08:09:53.830Z,4.67
2017-09-05T08:12:24.462Z,4.10
2017-09-05T08:14:55.311Z,3.43
2017-09-05T08:17:25.984Z,4.40
2017-09-05T08:19:56.986Z,3.37
2017-09-05T08:22:27.506Z,5.23
2017-09-05T08:24:58.114Z,13.87
2017-09-05T08:27:28.683Z,4.80
2017-09-05T08:29:59.329Z,3.10
2017-09-05T08:32:30.214Z,3.53
2017-09-05T08:35:00.821Z,3.73
2017-09-05T08:37:32.422Z,9.97
2017-09-05T08:40:03.054Z,5.47
2017-09-05T08:42:33.670Z,5.90
2017-09-05T08:45:04.292Z,4.50
2017-09-05T08:47:34.897Z,6.30
2017-09-05T08:50:05.830Z,4.57
2017-09-05T08:52:36.420Z,5.97
2017-09-05T08:55:07.122Z,3.73
2017-09-05T08:57:37.667Z,6.13
2017-09-05T09:00:08.219Z,4.13
2017-09-05T09:02:39.119Z,6.63
2017-09-05T09:05:09.994Z,5.00
2017-09-05T09:07:40.887Z,6.50
2017-09-05T09:10:11.517Z,5.47
2017-09-05T09:12:42.078Z,2.77
2017-09-05T09:15:12.629Z,4.60
2017-09-05T09:17:43.248Z,5.07
2017-09-05T09:20:14.217Z,4.50
2017-09-05T09:22:44.773Z,3.90
2017-09-05T09:25:15.370Z,4.90
2017-09-05T09:27:45.952Z,4.37
2017-09-05T09:30:16.513Z,6.27
2017-09-05T09:32:47.413Z,9.60
2017-09-05T09:35:17.942Z,4.67
2017-09-05T09:37:48.943Z,6.63
2017-09-05T09:40:19.510Z,5.67
2017-09-05T09:42:50.058Z,5.07
2017-09-05T09:45:20.652Z,5.03
2017-09-05T09:47:51.205Z,4.30
2017-09-05T09:50:21.942Z,4.97
2017-09-05T09:52:52.503Z,8.07
2017-09-05T09:55:23.306Z,3.97
2017-09-05T09:57:53.905Z,16.60
2017-09-05T10:00:25.224Z,5.00
2017-09-05T10:02:55.734Z,9.87
2017-09-05T10:05:26.306Z,10.00
2017-09-05T10:07:58.803Z,6.17
2017-09-05T10:10:29.364Z,4.77
2017-09-05T10:12:59.999Z,6.13
2017-09-05T10:15:30.572Z,7.23
2017-09-05T10:18:01.186Z,12.87
2017-09-05T10:20:32.184Z,11.67
2017-09-05T10:23:02.716Z,12.37
2017-09-05T10:25:33.608Z,19.47
2017-09-05T10:28:04.194Z,6.90
2017-09-05T10:30:34.758Z,7.90
2017-09-05T10:33:05.358Z,10.07
2017-09-05T10:35:35.957Z,8.67
2017-09-05T10:38:06.994Z,11.30
2017-09-05T10:40:37.586Z,8.20
2017-09-05T10:43:08.175Z,8.57
2017-09-05T10:45:38.693Z,6.60
2017-09-05T10:48:09.274Z,5.33
2017-09-05T10:50:40.129Z,6.60
2017-09-05T10:53:10.703Z,7.63
2017-09-05T10:55:42.272Z,13.43
2017-09-05T10:58:12.834Z,6.83
2017-09-05T11:00:43.455Z,6.60
2017-09-05T11:03:14.049Z,17.80
2017-09-05T11:05:44.678Z,27.83
2017-09-05T11:08:15.428Z,18.00
2017-09-05T11:10:46.001Z,14.07
2017-09-05T11:13:16.752Z,11.93
2017-09-05T11:15:47.268Z,13.80
2017-09-05T11:18:18.630Z,24.73
2017-09-05T11:20:49.224Z,19.43
2017-09-05T11:23:19.790Z,28.67
2017-09-05T11:25:50.729Z,18.83
2017-09-05T11:28:21.294Z,12.90
2017-09-05T11:30:51.845Z,12.47
2017-09-05T11:33:22.463Z,7.73
2017-09-05T11:35:53.009Z,7.27
2017-09-05T11:38:23.723Z,6.57
2017-09-05T11:40:54.335Z,7.00
2017-09-05T11:43:25.283Z,12.47
2017-09-05T11:45:55.890Z,7.13
2017-09-05T11:48:26.448Z,5.17
2017-09-05T11:50:57.084Z,7.50
2017-09-05T11:53:27.674Z,3.17
2017-09-05T11:55:58.326Z,10.57
2017-09-05T11:58:28.932Z,6.07
2017-09-05T12:00:59.531Z,13.73
2017-09-05T12:03:30.087Z,17.80
2017-09-05T12:06:00.657Z,24.03
2017-09-05T12:08:31.237Z,17.27
2017-09-05T12:11:01.832Z,15.77
2017-09-05T12:13:32.703Z,9.80
2017-09-05T12:16:03.278Z,8.43
2017-09-05T12:18:33.866Z,10.60
2017-09-05T12:21:04.431Z,16.20
2017-09-05T12:23:35.029Z,12.40
2017-09-05T12:26:05.986Z,10.27
2017-09-05T12:28:36.597Z,13.23
2017-09-05T12:31:07.713Z,10.53
2017-09-05T12:33:38.270Z,18.50
2017-09-05T12:36:08.865Z,17.97
2017-09-05T12:38:39.429Z,13.97
2017-09-05T12:41:10.041Z,14.20
2017-09-05T12:43:40.909Z,12.23
2017-09-05T12:46:11.505Z,23.97
2017-09-05T12:48:42.054Z,10.40
2017-09-05T12:51:12.616Z,10.60
2017-09-05T12:53:43.131Z,12.90
2017-09-05T12:56:14.931Z,15.57
2017-09-05T12:58:45.460Z,13.10
2017-09-05T13:01:16.513Z,12.80
2017-09-05T13:03:47.107Z,13.30
2017-09-05T13:06:17.651Z,13.47
2017-09-05T13:08:48.175Z,13.80
2017-09-05T13:11:18.778Z,13.43
2017-09-05T13:13:50.519Z,10.80
2017-09-05T13:16:21.067Z,23.33
2017-09-05T13:18:51.682Z,23.00
2017-09-05T13:21:22.203Z,23.57
2017-09-05T13:23:53.571Z,20.73
2017-09-05T13:26:24.137Z,41.47
2017-09-05T13:28:54.737Z,15.43
2017-09-05T13:31:25.678Z,14.63
2017-09-05T13:33:56.291Z,11.00
2017-09-05T13:36:26.895Z,12.30
2017-09-05T13:38:57.466Z,12.13
2017-09-05T13:41:28.057Z,13.73
2017-09-05T13:43:59.035Z,17.63
2017-09-05T13:46:29.669Z,14.70
2017-09-05T13:49:00.623Z,12.57
2017-09-05T13:51:31.203Z,11.73
2017-09-05T13:54:02.501Z,17.23
2017-09-05T13:56:33.114Z,25.90
2017-09-05T13:59:03.773Z,27.50
2017-09-05T14:01:34.807Z,20.50
2017-09-05T14:04:05.326Z,20.73
2017-09-05T14:06:35.886Z,20.30
2017-09-05T14:09:06.691Z,16.37
2017-09-05T14:11:37.245Z,16.50
2017-09-05T14:14:08.279Z,20.07
2017-09-05T14:16:40.110Z,17.20
2017-09-05T14:19:10.991Z,18.97
2017-09-05T14:21:41.577Z,18.07
2017-09-05T14:24:12.209Z,20.17
2017-09-05T14:26:43.499Z,24.97
2017-09-05T14:29:15.200Z,20.03
2017-09-05T14:31:45.742Z,27.13
2017-09-05T14:34:16.243Z,24.50
2017-09-05T14:36:47.943Z,24.50
2017-09-05T14:39:18.509Z,22.80
2017-09-05T14:41:49.117Z,28.70
2017-09-05T14:44:20.030Z,34.17
2017-09-05T14:46:50.589Z,32.13
2017-09-05T14:49:21.562Z,26.27
2017-09-05T14:51:52.890Z,36.37
2017-09-05T14:54:23.421Z,28.67
2017-09-05T14:56:53.961Z,25.87
2017-09-05T14:59:24.579Z,64.00
2017-09-05T15:01:55.303Z,40.17
2017-09-05T15:04:25.823Z,34.80
2017-09-05T15:06:56.438Z,34.80
2017-09-05T15:09:27.045Z,28.67
2017-09-05T15:11:58.614Z,29.83
2017-09-05T15:14:29.154Z,31.00
2017-09-05T15:16:59.701Z,29.00
2017-09-05T15:19:30.333Z,32.47
2017-09-05T15:22:00.924Z,24.63
2017-09-05T15:24:31.478Z,21.33
2017-09-05T15:27:02.087Z,21.33
2017-09-05T15:29:32.590Z,22.43
2017-09-05T15:32:03.311Z,27.03
2017-09-05T15:34:33.918Z,29.07
2017-09-05T15:37:05.652Z,25.50
2017-09-05T15:39:36.187Z,29.00
2017-09-05T15:42:06.754Z,30.13
2017-09-05T15:44:37.339Z,31.10
2017-09-05T15:47:07.930Z,29.43
2017-09-05T15:49:38.802Z,31.23
2017-09-05T15:52:09.391Z,26.97
2017-09-05T15:54:40.752Z,31.73
2017-09-05T15:57:11.294Z,30.03
2017-09-05T15:59:41.847Z,35.43
2017-09-05T16:02:12.778Z,30.90
2017-09-05T16:04:43.302Z,35.43
2017-09-05T16:07:14.242Z,31.13
2017-09-05T16:09:44.810Z,28.93
2017-09-05T16:12:15.419Z,31.40
2017-09-05T16:14:45.990Z,29.60
2017-09-05T16:17:17.747Z,30.67
2017-09-05T16:19:48.632Z,29.20
2017-09-05T16:22:19.249Z,33.50
2017-09-05T16:24:49.750Z,35.00
2017-09-05T16:27:20.384Z,37.67
2017-09-05T16:29:50.954Z,36.10
2017-09-05T16:32:21.479Z,28.80
2017-09-05T16:34:52.031Z,35.80
2017-09-05T16:37:22.914Z,31.17
2017-09-05T16:39:53.510Z,29.43
2017-09-05T16:42:24.091Z,26.47
2017-09-05T16:44:54.657Z,28.93
2017-09-05T16:47:25.231Z,23.60
2017-09-05T16:49:56.224Z,29.30
2017-09-05T16:52:26.872Z,33.70
2017-09-05T16:54:57.758Z,26.80
2017-09-05T16:57:28.324Z,31.40
2017-09-05T16:59:58.983Z,26.83
2017-09-05T17:02:29.675Z,24.40
2017-09-05T17:05:00.246Z,23.47
2017-09-05T17:07:30.952Z,22.60
2017-09-05T17:10:01.530Z,25.00
2017-09-05T17:12:33.102Z,24.13
2017-09-05T17:15:03.658Z,23.87
2017-09-05T17:17:34.259Z,24.10
2017-09-05T17:20:05.227Z,21.30
2017-09-05T17:22:35.830Z,28.03
2017-09-05T17:25:07.494Z,23.07
2017-09-05T17:27:38.093Z,25.53
2017-09-05T17:30:08.689Z,27.00
2017-09-05T17:32:39.292Z,20.23
2017-09-05T17:35:09.874Z,28.57
2017-09-05T17:37:40.827Z,25.07
2017-09-05T17:40:11.354Z,22.43
2017-09-05T17:42:41.950Z,25.00
2017-09-05T17:45:12.519Z,20.53
2017-09-05T17:47:43.086Z,21.87
2017-09-05T17:50:13.694Z,24.57
2017-09-05T17:52:44.290Z,21.57
2017-09-05T17:55:15.158Z,21.87
2017-09-05T17:57:45.719Z,26.83
2017-09-05T18:00:16.328Z,22.13
2017-09-05T18:02:46.893Z,23.73
2017-09-05T18:05:17.446Z,23.30
2017-09-05T18:07:48.401Z,26.53
2017-09-05T18:10:18.927Z,24.20
2017-09-05T18:12:50.091Z,30.63
2017-09-05T18:15:20.640Z,28.37
2017-09-05T18:17:51.202Z,28.57
2017-09-05T18:20:21.782Z,32.07
2017-09-05T18:22:52.350Z,22.67
2017-09-05T18:25:23.230Z,21.93
2017-09-05T18:27:54.602Z,25.50
2017-09-05T18:30:25.166Z,29.30
2017-09-05T18:32:55.764Z,21.93
2017-09-05T18:35:26.332Z,26.60
2017-09-05T18:37:57.358Z,27.30
2017-09-05T18:40:27.906Z,26.60
2017-09-05T18:42:58.729Z,25.13
2017-09-05T18:45:29.339Z,25.33
2017-09-05T18:47:59.939Z,29.00
2017-09-05T18:50:30.450Z,25.47
2017-09-05T18:53:01.066Z,23.60
2017-09-05T18:55:31.884Z,26.03
2017-09-05T18:58:02.496Z,26.67
2017-09-05T19:00:33.064Z,21.67
2017-09-05T19:03:03.685Z,27.50
2017-09-05T19:05:34.282Z,23.27
2017-09-05T19:08:04.842Z,20.27
2017-09-05T19:10:35.396Z,42.83
2017-09-05T19:13:06.410Z,29.90
2017-09-05T19:15:36.935Z,23.67
2017-09-05T19:18:07.530Z,22.73
2017-09-05T19:20:38.137Z,29.10
2017-09-05T19:23:09.506Z,33.73
2017-09-05T19:25:40.153Z,23.40
2017-09-05T19:28:10.735Z,37.93
2017-09-05T19:30:41.433Z,24.80
2017-09-05T19:33:11.971Z,26.77
2017-09-05T19:35:42.527Z,25.33
2017-09-05T19:38:13.157Z,28.67
2017-09-05T19:40:43.751Z,29.57
2017-09-05T19:43:14.767Z,28.43
2017-09-05T19:45:45.360Z,24.80
2017-09-05T19:48:15.926Z,25.43
2017-09-05T19:50:46.486Z,27.50
2017-09-05T19:53:17.052Z,24.20
2017-09-05T19:55:48.067Z,31.10
2017-09-05T19:58:18.667Z,27.13
2017-09-05T20:00:49.571Z,34.97
2017-09-05T20:03:20.384Z,27.50
2017-09-05T20:05:50.918Z,32.30
2017-09-05T20:10:57.350Z,38.60
2017-09-05T20:13:28.138Z,34.20
2017-09-05T20:15:58.654Z,35.40
2017-09-05T20:18:29.235Z,37.47
2017-09-05T20:20:59.773Z,31.27
2017-09-05T20:23:30.371Z,44.47
2017-09-05T20:26:01.360Z,42.47
2017-09-05T20:28:31.895Z,34.70
2017-09-05T20:31:02.911Z,35.70
2017-09-05T20:33:33.479Z,32.17
2017-09-05T20:36:04.050Z,30.83
2017-09-05T20:38:34.595Z,36.90
2017-09-05T20:41:05.149Z,38.97
2017-09-05T20:43:36.058Z,46.67
2017-09-05T20:46:06.654Z,33.67
2017-09-05T20:48:37.646Z,42.97
2017-09-05T20:51:08.231Z,30.03
2017-09-05T20:53:38.773Z,36.57
2017-09-05T20:56:10.913Z,39.07
2017-09-05T20:58:41.543Z,30.40
2017-09-05T21:01:12.541Z,36.10
2017-09-05T21:03:43.090Z,32.90
2017-09-05T21:06:13.620Z,30.40
2017-09-05T21:08:44.211Z,36.63
2017-09-05T21:11:14.715Z,30.80
2017-09-05T21:13:46.406Z,30.43
2017-09-05T21:16:16.994Z,28.10
2017-09-05T21:18:47.878Z,26.10
2017-09-05T21:21:18.476Z,23.87
2017-09-05T21:23:49.055Z,26.53
2017-09-05T21:26:19.638Z,34.83
2017-09-05T21:28:50.142Z,34.33
2017-09-05T21:31:21.124Z,29.70
2017-09-05T21:33:51.722Z,34.17
2017-09-05T21:36:22.568Z,32.87
2017-09-05T21:38:53.157Z,30.13
2017-09-05T21:41:23.751Z,27.53
2017-09-05T21:43:54.672Z,30.17
2017-09-05T21:46:25.226Z,27.90
2017-09-05T21:48:56.158Z,41.23
2017-09-05T21:51:26.730Z,36.93
2017-09-05T21:53:57.274Z,25.23
2017-09-05T21:59:56.998Z,32.43
2017-09-05T22:02:27.526Z,24.07
2017-09-05T22:04:58.147Z,28.63
2017-09-05T22:07:28.621Z,31.00
2017-09-05T22:09:59.132Z,31.33
2017-09-05T22:12:29.755Z,30.00
2017-09-05T22:15:05.514Z,42.13
2017-09-05T22:17:36.434Z,44.53
2017-09-05T22:20:11.920Z,31.40
2017-09-05T22:22:51.790Z,37.27
2017-09-05T22:25:27.219Z,33.10
2017-09-05T22:28:02.940Z,40.53
2017-09-05T22:30:33.511Z,24.53
2017-09-05T22:33:04.128Z,29.73
2017-09-05T22:35:34.687Z,36.57
2017-09-05T22:38:05.239Z,26.17
2017-09-05T22:40:36.356Z,34.60
2017-09-05T22:43:06.934Z,30.10
2017-09-05T22:45:37.589Z,26.13
2017-09-05T22:48:08.119Z,33.77
2017-09-05T22:50:38.660Z,27.73
2017-09-05T22:53:09.209Z,25.60
2017-09-05T22:55:39.807Z,33.77
2017-09-05T22:58:10.833Z,34.27
2017-09-05T23:00:41.393Z,21.50
2017-09-05T23:03:12.042Z,21.50
2017-09-05T23:05:42.609Z,32.73
2017-09-05T23:08:13.137Z,31.53
2017-09-05T23:10:44.635Z,24.90
2017-09-05T23:13:15.401Z,33.73
2017-09-05T23:15:46.291Z,27.43
2017-09-05T23:18:17.916Z,27.67
2017-09-05T23:20:48.566Z,28.80
2017-09-05T23:23:19.096Z,26.07
2017-09-05T23:25:49.702Z,26.40
2017-09-05T23:28:20.279Z,40.63
2017-09-05T23:30:50.932Z,25.37
2017-09-05T23:33:21.484Z,37.57
2017-09-05T23:35:51.986Z,28.90
2017-09-05T23:38:22.469Z,25.13
2017-09-05T23:40:53.059Z,27.10
2017-09-05T23:43:23.579Z,31.03
2017-09-05T23:45:54.319Z,28.27
2017-09-05T23:48:24.792Z,25.73
2017-09-05T23:50:55.377Z,31.17
2017-09-05T23:53:25.964Z,31.73
2017-09-05T23:55:56.469Z,26.23
2017-09-05T23:58:27.515Z,35.10
